Grove Hall, Massachusetts
Current Conditions -  °F | °C
As of 10:54 PM on Sunday 23 Nov 2014 (Local Time) from KBOS Reporting Station
Scattered Clouds Scattered Clouds  
Wind Chill: 41°   Ceiling: Unl
Heat Index: 44°   Visibility: 10mi
Dew Point: 37°   Wind: 6mph
Humidity: 76%   Direction: 210°SSW
Pressure: 30.12"   Gusts: NA
Location:  42.3078°N, 71.0835°W
Report Text: KBOS 240354Z 21005KT 10SM SCT110 SCT250 07/03 A3012 RMK AO2 SLP199 T00670028
Loading
Personal Weather Stations






























Interactive Weather Map New forecast layout! Learn more

10-Day Weather Forecast

Advertisements
Track Severe Weather on mobile